sensor_id;sensor_type;location;lat;lon;timestamp;P1;durP1;ratioP1;P2;durP2;ratioP2
16314;SDS011;8266;52.150;4.768;2023-02-23T00:01:11;32.75;;;24.27;;
16314;SDS011;8266;52.150;4.768;2023-02-23T00:03:39;30.02;;;22.38;;
16314;SDS011;8266;52.150;4.768;2023-02-23T00:06:06;33.67;;;25.05;;
16314;SDS011;8266;52.150;4.768;2023-02-23T00:08:34;36.28;;;24.77;;
16314;SDS011;8266;52.150;4.768;2023-02-23T00:11:02;34.90;;;25.10;;
16314;SDS011;8266;52.150;4.768;2023-02-23T00:13:30;32.72;;;24.63;;
16314;SDS011;8266;52.150;4.768;2023-02-23T00:15:57;34.38;;;24.80;;
16314;SDS011;8266;52.150;4.768;2023-02-23T00:18:26;31.67;;;23.88;;
16314;SDS011;8266;52.150;4.768;2023-02-23T00:20:54;38.15;;;26.27;;
16314;SDS011;8266;52.150;4.768;2023-02-23T00:23:23;35.38;;;25.33;;
16314;SDS011;8266;52.150;4.768;2023-02-23T00:25:51;34.70;;;24.55;;
16314;SDS011;8266;52.150;4.768;2023-02-23T00:28:18;36.00;;;25.80;;
16314;SDS011;8266;52.150;4.768;2023-02-23T00:30:45;36.45;;;26.35;;
16314;SDS011;8266;52.150;4.768;2023-02-23T00:33:12;36.83;;;26.30;;
16314;SDS011;8266;52.150;4.768;2023-02-23T00:35:41;35.15;;;26.10;;
16314;SDS011;8266;52.150;4.768;2023-02-23T00:38:08;36.40;;;26.08;;
16314;SDS011;8266;52.150;4.768;2023-02-23T00:40:38;36.10;;;24.83;;
16314;SDS011;8266;52.150;4.768;2023-02-23T00:43:07;36.17;;;25.13;;
16314;SDS011;8266;52.150;4.768;2023-02-23T00:45:34;37.05;;;27.02;;
16314;SDS011;8266;52.150;4.768;2023-02-23T00:48:02;34.85;;;24.98;;
16314;SDS011;8266;52.150;4.768;2023-02-23T00:50:34;37.33;;;26.35;;
16314;SDS011;8266;52.150;4.768;2023-02-23T00:53:04;34.95;;;25.10;;
16314;SDS011;8266;52.150;4.768;2023-02-23T00:55:31;34.88;;;24.77;;
16314;SDS011;8266;52.150;4.768;2023-02-23T00:57:58;34.55;;;25.67;;
16314;SDS011;8266;52.150;4.768;2023-02-23T01:00:25;40.58;;;26.98;;
16314;SDS011;8266;52.150;4.768;2023-02-23T01:02:52;35.72;;;25.95;;
16314;SDS011;8266;52.150;4.768;2023-02-23T01:05:19;34.28;;;25.10;;
16314;SDS011;8266;52.150;4.768;2023-02-23T01:07:47;38.92;;;26.98;;
16314;SDS011;8266;52.150;4.768;2023-02-23T01:10:16;38.20;;;26.15;;
16314;SDS011;8266;52.150;4.768;2023-02-23T01:12:48;36.72;;;26.50;;
16314;SDS011;8266;52.150;4.768;2023-02-23T01:15:17;39.85;;;27.38;;
16314;SDS011;8266;52.150;4.768;2023-02-23T01:17:45;38.80;;;27.80;;
16314;SDS011;8266;52.150;4.768;2023-02-23T01:20:14;40.47;;;27.40;;
16314;SDS011;8266;52.150;4.768;2023-02-23T01:22:43;37.40;;;27.70;;
16314;SDS011;8266;52.150;4.768;2023-02-23T01:25:11;36.70;;;26.77;;
16314;SDS011;8266;52.150;4.768;2023-02-23T01:27:41;34.72;;;26.88;;
16314;SDS011;8266;52.150;4.768;2023-02-23T01:30:09;36.30;;;26.88;;
16314;SDS011;8266;52.150;4.768;2023-02-23T01:32:39;37.20;;;26.83;;
16314;SDS011;8266;52.150;4.768;2023-02-23T01:35:07;37.22;;;26.75;;
16314;SDS011;8266;52.150;4.768;2023-02-23T01:37:37;37.75;;;27.42;;
16314;SDS011;8266;52.150;4.768;2023-02-23T01:40:05;40.28;;;27.10;;
16314;SDS011;8266;52.150;4.768;2023-02-23T01:42:37;38.75;;;27.92;;
16314;SDS011;8266;52.150;4.768;2023-02-23T01:47:55;38.28;;;27.38;;
16314;SDS011;8266;52.150;4.768;2023-02-23T01:50:26;36.42;;;25.85;;
16314;SDS011;8266;52.150;4.768;2023-02-23T01:52:56;38.78;;;27.23;;
16314;SDS011;8266;52.150;4.768;2023-02-23T01:55:24;38.03;;;26.65;;
16314;SDS011;8266;52.150;4.768;2023-02-23T01:57:55;35.35;;;26.48;;
16314;SDS011;8266;52.150;4.768;2023-02-23T02:00:30;37.88;;;27.05;;
16314;SDS011;8266;52.150;4.768;2023-02-23T02:03:01;35.00;;;25.70;;
16314;SDS011;8266;52.150;4.768;2023-02-23T02:05:33;34.72;;;24.98;;
16314;SDS011;8266;52.150;4.768;2023-02-23T02:08:03;36.45;;;26.38;;
16314;SDS011;8266;52.150;4.768;2023-02-23T02:10:34;38.17;;;27.00;;
16314;SDS011;8266;52.150;4.768;2023-02-23T02:13:09;37.97;;;27.80;;
16314;SDS011;8266;52.150;4.768;2023-02-23T02:15:51;40.30;;;27.85;;
16314;SDS011;8266;52.150;4.768;2023-02-23T02:18:38;32.65;;;25.25;;
16314;SDS011;8266;52.150;4.768;2023-02-23T02:31:03;33.13;;;24.55;;
16314;SDS011;8266;52.150;4.768;2023-02-23T02:34:10;34.35;;;24.63;;
16314;SDS011;8266;52.150;4.768;2023-02-23T02:37:02;37.15;;;25.63;;
16314;SDS011;8266;52.150;4.768;2023-02-23T02:39:39;36.53;;;25.15;;
16314;SDS011;8266;52.150;4.768;2023-02-23T02:42:14;37.58;;;26.95;;
16314;SDS011;8266;52.150;4.768;2023-02-23T02:44:49;39.85;;;26.02;;
16314;SDS011;8266;52.150;4.768;2023-02-23T02:47:24;35.15;;;25.30;;
16314;SDS011;8266;52.150;4.768;2023-02-23T02:49:56;35.72;;;25.15;;
16314;SDS011;8266;52.150;4.768;2023-02-23T02:52:32;36.92;;;25.98;;
16314;SDS011;8266;52.150;4.768;2023-02-23T02:55:05;36.95;;;26.00;;
16314;SDS011;8266;52.150;4.768;2023-02-23T02:57:40;38.22;;;25.60;;
16314;SDS011;8266;52.150;4.768;2023-02-23T03:00:13;35.72;;;26.85;;
16314;SDS011;8266;52.150;4.768;2023-02-23T03:03:01;37.97;;;26.73;;
16314;SDS011;8266;52.150;4.768;2023-02-23T03:05:46;34.92;;;25.42;;
16314;SDS011;8266;52.150;4.768;2023-02-23T03:08:36;37.30;;;26.05;;
16314;SDS011;8266;52.150;4.768;2023-02-23T03:11:27;34.85;;;25.00;;
16314;SDS011;8266;52.150;4.768;2023-02-23T03:14:22;34.30;;;25.70;;
16314;SDS011;8266;52.150;4.768;2023-02-23T03:17:12;34.95;;;24.00;;
16314;SDS011;8266;52.150;4.768;2023-02-23T03:20:07;34.88;;;24.15;;
16314;SDS011;8266;52.150;4.768;2023-02-23T03:23:02;35.78;;;25.17;;
16314;SDS011;8266;52.150;4.768;2023-02-23T03:26:00;32.40;;;23.75;;
16314;SDS011;8266;52.150;4.768;2023-02-23T03:28:51;33.72;;;24.73;;
16314;SDS011;8266;52.150;4.768;2023-02-23T03:31:44;31.42;;;22.77;;
16314;SDS011;8266;52.150;4.768;2023-02-23T03:34:34;34.60;;;25.92;;
16314;SDS011;8266;52.150;4.768;2023-02-23T03:37:24;32.30;;;22.08;;
16314;SDS011;8266;52.150;4.768;2023-02-23T03:40:15;32.72;;;23.50;;
16314;SDS011;8266;52.150;4.768;2023-02-23T03:43:06;35.22;;;24.95;;
16314;SDS011;8266;52.150;4.768;2023-02-23T03:45:53;35.03;;;24.73;;
16314;SDS011;8266;52.150;4.768;2023-02-23T03:48:39;36.38;;;25.40;;
16314;SDS011;8266;52.150;4.768;2023-02-23T03:51:27;35.63;;;25.70;;
16314;SDS011;8266;52.150;4.768;2023-02-23T03:54:16;39.05;;;26.10;;
16314;SDS011;8266;52.150;4.768;2023-02-23T03:57:04;36.88;;;25.27;;
16314;SDS011;8266;52.150;4.768;2023-02-23T03:59:55;34.85;;;24.63;;
16314;SDS011;8266;52.150;4.768;2023-02-23T04:02:42;35.40;;;25.52;;
16314;SDS011;8266;52.150;4.768;2023-02-23T04:05:30;38.53;;;26.15;;
16314;SDS011;8266;52.150;4.768;2023-02-23T04:08:20;38.38;;;26.35;;
16314;SDS011;8266;52.150;4.768;2023-02-23T04:11:09;35.90;;;24.80;;
16314;SDS011;8266;52.150;4.768;2023-02-23T04:13:58;43.83;;;27.55;;
16314;SDS011;8266;52.150;4.768;2023-02-23T04:16:28;41.58;;;28.30;;
16314;SDS011;8266;52.150;4.768;2023-02-23T04:18:56;38.75;;;26.88;;
16314;SDS011;8266;52.150;4.768;2023-02-23T04:21:23;39.47;;;26.52;;
16314;SDS011;8266;52.150;4.768;2023-02-23T04:23:50;38.80;;;27.50;;
16314;SDS011;8266;52.150;4.768;2023-02-23T04:26:17;38.05;;;26.60;;
16314;SDS011;8266;52.150;4.768;2023-02-23T04:28:45;40.92;;;26.42;;
16314;SDS011;8266;52.150;4.768;2023-02-23T04:31:12;33.47;;;24.45;;
16314;SDS011;8266;52.150;4.768;2023-02-23T04:33:40;34.75;;;23.02;;
16314;SDS011;8266;52.150;4.768;2023-02-23T04:36:07;33.00;;;23.35;;
16314;SDS011;8266;52.150;4.768;2023-02-23T04:38:34;36.08;;;24.73;;
16314;SDS011;8266;52.150;4.768;2023-02-23T04:41:01;40.00;;;24.80;;
16314;SDS011;8266;52.150;4.768;2023-02-23T04:43:28;37.42;;;25.77;;
16314;SDS011;8266;52.150;4.768;2023-02-23T04:45:55;39.13;;;25.80;;
16314;SDS011;8266;52.150;4.768;2023-02-23T04:48:22;36.40;;;25.85;;
16314;SDS011;8266;52.150;4.768;2023-02-23T04:50:52;35.75;;;25.60;;
16314;SDS011;8266;52.150;4.768;2023-02-23T04:53:19;34.92;;;25.20;;
16314;SDS011;8266;52.150;4.768;2023-02-23T04:55:46;34.22;;;24.40;;
16314;SDS011;8266;52.150;4.768;2023-02-23T04:58:13;33.10;;;23.15;;
16314;SDS011;8266;52.150;4.768;2023-02-23T05:00:40;39.50;;;26.17;;
16314;SDS011;8266;52.150;4.768;2023-02-23T05:03:07;38.08;;;26.58;;
16314;SDS011;8266;52.150;4.768;2023-02-23T05:05:35;37.38;;;24.65;;
16314;SDS011;8266;52.150;4.768;2023-02-23T05:08:03;33.65;;;24.52;;
16314;SDS011;8266;52.150;4.768;2023-02-23T05:10:31;37.63;;;25.65;;
16314;SDS011;8266;52.150;4.768;2023-02-23T05:12:58;36.35;;;24.42;;
16314;SDS011;8266;52.150;4.768;2023-02-23T05:15:25;34.60;;;24.65;;
16314;SDS011;8266;52.150;4.768;2023-02-23T05:17:52;37.45;;;24.77;;
16314;SDS011;8266;52.150;4.768;2023-02-23T05:20:20;38.20;;;26.08;;
16314;SDS011;8266;52.150;4.768;2023-02-23T05:22:48;38.28;;;24.48;;
16314;SDS011;8266;52.150;4.768;2023-02-23T05:25:16;35.50;;;26.02;;
16314;SDS011;8266;52.150;4.768;2023-02-23T05:27:43;36.95;;;24.33;;
16314;SDS011;8266;52.150;4.768;2023-02-23T05:30:11;37.25;;;25.73;;
16314;SDS011;8266;52.150;4.768;2023-02-23T05:32:38;36.40;;;26.20;;
16314;SDS011;8266;52.150;4.768;2023-02-23T05:35:05;38.30;;;25.60;;
16314;SDS011;8266;52.150;4.768;2023-02-23T05:37:33;36.00;;;25.65;;
16314;SDS011;8266;52.150;4.768;2023-02-23T05:40:00;38.05;;;25.98;;
16314;SDS011;8266;52.150;4.768;2023-02-23T05:42:29;37.00;;;25.70;;
16314;SDS011;8266;52.150;4.768;2023-02-23T05:44:55;38.50;;;26.65;;
16314;SDS011;8266;52.150;4.768;2023-02-23T05:47:22;33.85;;;23.83;;
16314;SDS011;8266;52.150;4.768;2023-02-23T05:49:50;35.55;;;24.95;;
16314;SDS011;8266;52.150;4.768;2023-02-23T05:52:17;36.45;;;24.88;;
16314;SDS011;8266;52.150;4.768;2023-02-23T05:54:44;36.92;;;25.88;;
16314;SDS011;8266;52.150;4.768;2023-02-23T05:57:11;37.20;;;25.83;;
16314;SDS011;8266;52.150;4.768;2023-02-23T05:59:39;41.05;;;27.77;;
16314;SDS011;8266;52.150;4.768;2023-02-23T06:02:06;39.92;;;26.73;;
16314;SDS011;8266;52.150;4.768;2023-02-23T06:04:33;40.30;;;27.15;;
16314;SDS011;8266;52.150;4.768;2023-02-23T06:07:00;35.35;;;23.90;;
16314;SDS011;8266;52.150;4.768;2023-02-23T06:09:27;34.33;;;22.95;;
16314;SDS011;8266;52.150;4.768;2023-02-23T06:11:54;38.40;;;26.52;;
16314;SDS011;8266;52.150;4.768;2023-02-23T06:14:23;38.53;;;24.92;;
16314;SDS011;8266;52.150;4.768;2023-02-23T06:16:51;33.60;;;23.33;;
16314;SDS011;8266;52.150;4.768;2023-02-23T06:19:19;37.35;;;24.42;;
16314;SDS011;8266;52.150;4.768;2023-02-23T06:21:46;38.47;;;25.42;;
16314;SDS011;8266;52.150;4.768;2023-02-23T06:24:13;32.85;;;24.60;;
16314;SDS011;8266;52.150;4.768;2023-02-23T06:26:40;34.45;;;23.50;;
16314;SDS011;8266;52.150;4.768;2023-02-23T06:29:07;35.17;;;23.63;;
16314;SDS011;8266;52.150;4.768;2023-02-23T06:31:36;37.05;;;25.95;;
16314;SDS011;8266;52.150;4.768;2023-02-23T06:34:04;39.35;;;25.55;;
16314;SDS011;8266;52.150;4.768;2023-02-23T06:36:31;36.90;;;24.50;;
16314;SDS011;8266;52.150;4.768;2023-02-23T06:38:58;38.35;;;25.92;;
16314;SDS011;8266;52.150;4.768;2023-02-23T06:41:26;34.42;;;23.73;;
16314;SDS011;8266;52.150;4.768;2023-02-23T06:43:53;39.22;;;25.77;;
16314;SDS011;8266;52.150;4.768;2023-02-23T06:46:20;32.63;;;23.08;;
16314;SDS011;8266;52.150;4.768;2023-02-23T06:48:53;36.08;;;23.63;;
16314;SDS011;8266;52.150;4.768;2023-02-23T06:51:22;33.13;;;22.58;;
16314;SDS011;8266;52.150;4.768;2023-02-23T06:53:49;34.50;;;23.80;;
16314;SDS011;8266;52.150;4.768;2023-02-23T06:56:17;31.13;;;22.08;;
16314;SDS011;8266;52.150;4.768;2023-02-23T06:58:44;35.80;;;23.35;;
16314;SDS011;8266;52.150;4.768;2023-02-23T07:01:12;34.33;;;23.75;;
16314;SDS011;8266;52.150;4.768;2023-02-23T07:03:39;38.28;;;24.02;;
16314;SDS011;8266;52.150;4.768;2023-02-23T07:06:07;32.97;;;22.80;;
16314;SDS011;8266;52.150;4.768;2023-02-23T07:08:36;36.30;;;24.27;;
16314;SDS011;8266;52.150;4.768;2023-02-23T07:11:04;38.05;;;24.70;;
16314;SDS011;8266;52.150;4.768;2023-02-23T07:13:32;32.20;;;20.98;;
16314;SDS011;8266;52.150;4.768;2023-02-23T07:16:00;33.30;;;22.38;;
16314;SDS011;8266;52.150;4.768;2023-02-23T07:18:27;36.35;;;23.88;;
16314;SDS011;8266;52.150;4.768;2023-02-23T07:20:54;36.13;;;23.77;;
16314;SDS011;8266;52.150;4.768;2023-02-23T07:23:21;35.60;;;22.95;;
16314;SDS011;8266;52.150;4.768;2023-02-23T07:25:50;33.20;;;21.50;;
16314;SDS011;8266;52.150;4.768;2023-02-23T07:28:17;32.70;;;21.00;;
16314;SDS011;8266;52.150;4.768;2023-02-23T07:30:45;36.30;;;22.70;;
16314;SDS011;8266;52.150;4.768;2023-02-23T07:33:14;34.80;;;23.05;;
16314;SDS011;8266;52.150;4.768;2023-02-23T07:35:42;35.58;;;23.02;;
16314;SDS011;8266;52.150;4.768;2023-02-23T07:38:09;35.70;;;23.20;;
16314;SDS011;8266;52.150;4.768;2023-02-23T07:40:36;39.10;;;25.23;;
16314;SDS011;8266;52.150;4.768;2023-02-23T07:43:05;34.15;;;23.50;;
16314;SDS011;8266;52.150;4.768;2023-02-23T07:45:32;35.78;;;23.50;;
16314;SDS011;8266;52.150;4.768;2023-02-23T07:47:59;38.40;;;24.95;;
16314;SDS011;8266;52.150;4.768;2023-02-23T07:50:26;34.05;;;22.83;;
16314;SDS011;8266;52.150;4.768;2023-02-23T07:52:53;35.08;;;22.55;;
16314;SDS011;8266;52.150;4.768;2023-02-23T07:55:21;36.60;;;23.15;;
16314;SDS011;8266;52.150;4.768;2023-02-23T07:57:48;36.25;;;23.77;;
16314;SDS011;8266;52.150;4.768;2023-02-23T08:00:17;35.78;;;22.90;;
16314;SDS011;8266;52.150;4.768;2023-02-23T08:02:45;33.78;;;22.15;;
16314;SDS011;8266;52.150;4.768;2023-02-23T08:05:12;34.10;;;23.27;;
16314;SDS011;8266;52.150;4.768;2023-02-23T08:07:39;32.80;;;22.25;;
16314;SDS011;8266;52.150;4.768;2023-02-23T08:10:06;31.40;;;21.92;;
16314;SDS011;8266;52.150;4.768;2023-02-23T08:12:33;37.95;;;23.13;;
16314;SDS011;8266;52.150;4.768;2023-02-23T08:15:00;35.92;;;22.70;;
16314;SDS011;8266;52.150;4.768;2023-02-23T08:17:31;36.20;;;22.33;;
16314;SDS011;8266;52.150;4.768;2023-02-23T08:19:58;36.47;;;23.50;;
16314;SDS011;8266;52.150;4.768;2023-02-23T08:22:25;34.58;;;21.80;;
16314;SDS011;8266;52.150;4.768;2023-02-23T08:24:52;36.28;;;22.48;;
16314;SDS011;8266;52.150;4.768;2023-02-23T08:27:20;35.30;;;22.85;;
16314;SDS011;8266;52.150;4.768;2023-02-23T08:29:47;31.27;;;20.70;;
16314;SDS011;8266;52.150;4.768;2023-02-23T08:32:16;31.20;;;20.77;;
16314;SDS011;8266;52.150;4.768;2023-02-23T08:34:45;31.33;;;20.05;;
16314;SDS011;8266;52.150;4.768;2023-02-23T08:37:12;25.50;;;17.75;;
16314;SDS011;8266;52.150;4.768;2023-02-23T08:39:39;23.38;;;16.98;;
16314;SDS011;8266;52.150;4.768;2023-02-23T08:42:06;26.55;;;16.98;;
16314;SDS011;8266;52.150;4.768;2023-02-23T08:44:33;26.02;;;17.20;;
16314;SDS011;8266;52.150;4.768;2023-02-23T08:47:00;23.92;;;16.77;;
16314;SDS011;8266;52.150;4.768;2023-02-23T08:49:28;21.63;;;15.23;;
16314;SDS011;8266;52.150;4.768;2023-02-23T08:51:57;23.88;;;15.48;;
16314;SDS011;8266;52.150;4.768;2023-02-23T08:54:25;23.42;;;16.02;;
16314;SDS011;8266;52.150;4.768;2023-02-23T08:56:54;19.63;;;13.73;;
16314;SDS011;8266;52.150;4.768;2023-02-23T08:59:22;16.90;;;12.98;;
16314;SDS011;8266;52.150;4.768;2023-02-23T09:01:49;19.50;;;11.77;;
16314;SDS011;8266;52.150;4.768;2023-02-23T09:04:17;21.42;;;12.77;;
16314;SDS011;8266;52.150;4.768;2023-02-23T09:06:44;17.40;;;12.13;;
16314;SDS011;8266;52.150;4.768;2023-02-23T09:09:15;17.98;;;12.27;;
16314;SDS011;8266;52.150;4.768;2023-02-23T09:11:43;15.80;;;12.82;;
16314;SDS011;8266;52.150;4.768;2023-02-23T09:14:10;17.33;;;12.23;;
16314;SDS011;8266;52.150;4.768;2023-02-23T09:16:37;16.45;;;11.48;;
16314;SDS011;8266;52.150;4.768;2023-02-23T09:19:04;17.17;;;12.40;;
16314;SDS011;8266;52.150;4.768;2023-02-23T09:21:31;17.42;;;11.73;;
16314;SDS011;8266;52.150;4.768;2023-02-23T09:23:58;16.10;;;11.40;;
16314;SDS011;8266;52.150;4.768;2023-02-23T09:26:27;16.48;;;11.77;;
16314;SDS011;8266;52.150;4.768;2023-02-23T09:28:57;16.85;;;11.95;;
16314;SDS011;8266;52.150;4.768;2023-02-23T09:31:26;16.35;;;11.60;;
16314;SDS011;8266;52.150;4.768;2023-02-23T09:33:53;16.60;;;10.70;;
16314;SDS011;8266;52.150;4.768;2023-02-23T09:36:21;15.95;;;10.70;;
16314;SDS011;8266;52.150;4.768;2023-02-23T09:38:51;13.65;;;10.68;;
16314;SDS011;8266;52.150;4.768;2023-02-23T09:41:28;15.10;;;10.48;;
16314;SDS011;8266;52.150;4.768;2023-02-23T09:44:33;17.80;;;11.70;;
16314;SDS011;8266;52.150;4.768;2023-02-23T09:47:12;22.25;;;12.77;;
16314;SDS011;8266;52.150;4.768;2023-02-23T09:49:56;20.08;;;12.77;;
16314;SDS011;8266;52.150;4.768;2023-02-23T09:52:27;16.73;;;11.18;;
16314;SDS011;8266;52.150;4.768;2023-02-23T09:55:03;12.90;;;10.20;;
16314;SDS011;8266;52.150;4.768;2023-02-23T09:57:35;12.50;;;9.70;;
16314;SDS011;8266;52.150;4.768;2023-02-23T10:00:09;11.63;;;8.98;;
16314;SDS011;8266;52.150;4.768;2023-02-23T10:02:44;18.13;;;10.25;;
16314;SDS011;8266;52.150;4.768;2023-02-23T10:05:46;11.48;;;8.95;;
16314;SDS011;8266;52.150;4.768;2023-02-23T10:08:19;11.25;;;8.95;;
16314;SDS011;8266;52.150;4.768;2023-02-23T10:10:54;14.88;;;9.77;;
16314;SDS011;8266;52.150;4.768;2023-02-23T10:13:30;11.63;;;8.98;;
16314;SDS011;8266;52.150;4.768;2023-02-23T10:16:10;12.25;;;8.60;;
16314;SDS011;8266;52.150;4.768;2023-02-23T10:18:44;12.63;;;7.93;;
16314;SDS011;8266;52.150;4.768;2023-02-23T10:21:19;12.23;;;9.25;;
16314;SDS011;8266;52.150;4.768;2023-02-23T10:23:55;11.48;;;8.65;;
16314;SDS011;8266;52.150;4.768;2023-02-23T10:26:25;13.20;;;8.70;;
16314;SDS011;8266;52.150;4.768;2023-02-23T10:28:58;11.48;;;9.02;;
16314;SDS011;8266;52.150;4.768;2023-02-23T10:31:27;12.25;;;8.85;;
16314;SDS011;8266;52.150;4.768;2023-02-23T10:33:59;13.13;;;8.95;;
16314;SDS011;8266;52.150;4.768;2023-02-23T10:36:34;13.48;;;8.73;;
16314;SDS011;8266;52.150;4.768;2023-02-23T10:39:03;13.52;;;9.32;;
16314;SDS011;8266;52.150;4.768;2023-02-23T10:41:32;12.75;;;8.50;;
16314;SDS011;8266;52.150;4.768;2023-02-23T10:44:01;12.75;;;8.82;;
16314;SDS011;8266;52.150;4.768;2023-02-23T10:46:34;12.00;;;9.70;;
16314;SDS011;8266;52.150;4.768;2023-02-23T10:49:05;10.40;;;8.23;;
16314;SDS011;8266;52.150;4.768;2023-02-23T10:51:35;11.52;;;8.50;;
16314;SDS011;8266;52.150;4.768;2023-02-23T10:57:02;14.13;;;9.00;;
16314;SDS011;8266;52.150;4.768;2023-02-23T10:59:32;14.73;;;9.65;;
16314;SDS011;8266;52.150;4.768;2023-02-23T11:02:10;15.60;;;10.05;;
16314;SDS011;8266;52.150;4.768;2023-02-23T11:04:50;15.18;;;10.10;;
16314;SDS011;8266;52.150;4.768;2023-02-23T11:07:22;18.17;;;12.15;;
16314;SDS011;8266;52.150;4.768;2023-02-23T11:09:51;19.15;;;12.48;;
16314;SDS011;8266;52.150;4.768;2023-02-23T11:12:19;20.38;;;12.48;;
16314;SDS011;8266;52.150;4.768;2023-02-23T11:14:49;21.40;;;13.65;;
16314;SDS011;8266;52.150;4.768;2023-02-23T11:17:25;24.55;;;15.43;;
16314;SDS011;8266;52.150;4.768;2023-02-23T11:19:58;29.35;;;16.02;;
16314;SDS011;8266;52.150;4.768;2023-02-23T11:22:29;27.10;;;16.20;;
16314;SDS011;8266;52.150;4.768;2023-02-23T11:24:59;28.20;;;17.17;;
16314;SDS011;8266;52.150;4.768;2023-02-23T11:27:31;26.95;;;16.15;;
16314;SDS011;8266;52.150;4.768;2023-02-23T11:30:02;26.90;;;16.17;;
16314;SDS011;8266;52.150;4.768;2023-02-23T11:32:31;26.35;;;15.68;;
16314;SDS011;8266;52.150;4.768;2023-02-23T11:35:10;26.15;;;16.67;;
16314;SDS011;8266;52.150;4.768;2023-02-23T11:37:39;28.63;;;17.45;;
16314;SDS011;8266;52.150;4.768;2023-02-23T11:40:16;27.92;;;17.13;;
16314;SDS011;8266;52.150;4.768;2023-02-23T11:42:49;29.20;;;17.85;;
16314;SDS011;8266;52.150;4.768;2023-02-23T11:45:20;26.95;;;15.45;;
16314;SDS011;8266;52.150;4.768;2023-02-23T11:47:49;25.17;;;14.77;;
16314;SDS011;8266;52.150;4.768;2023-02-23T11:50:24;24.90;;;15.68;;
16314;SDS011;8266;52.150;4.768;2023-02-23T11:53:00;24.17;;;15.07;;
16314;SDS011;8266;52.150;4.768;2023-02-23T11:55:31;24.27;;;14.38;;
16314;SDS011;8266;52.150;4.768;2023-02-23T11:58:07;26.13;;;16.83;;
16314;SDS011;8266;52.150;4.768;2023-02-23T12:00:37;26.45;;;17.17;;
16314;SDS011;8266;52.150;4.768;2023-02-23T12:03:04;30.08;;;16.35;;
16314;SDS011;8266;52.150;4.768;2023-02-23T12:05:32;27.88;;;16.60;;
16314;SDS011;8266;52.150;4.768;2023-02-23T12:08:01;27.77;;;16.25;;
16314;SDS011;8266;52.150;4.768;2023-02-23T12:10:31;26.67;;;16.40;;
16314;SDS011;8266;52.150;4.768;2023-02-23T12:13:04;26.50;;;15.57;;
16314;SDS011;8266;52.150;4.768;2023-02-23T12:15:45;22.70;;;15.10;;
16314;SDS011;8266;52.150;4.768;2023-02-23T12:18:24;27.48;;;15.57;;
16314;SDS011;8266;52.150;4.768;2023-02-23T12:21:03;21.50;;;13.70;;
16314;SDS011;8266;52.150;4.768;2023-02-23T12:23:40;23.27;;;15.02;;
16314;SDS011;8266;52.150;4.768;2023-02-23T12:26:13;22.23;;;14.95;;
16314;SDS011;8266;52.150;4.768;2023-02-23T12:28:45;24.95;;;15.95;;
16314;SDS011;8266;52.150;4.768;2023-02-23T12:31:20;23.60;;;15.20;;
16314;SDS011;8266;52.150;4.768;2023-02-23T12:33:53;26.38;;;16.50;;
16314;SDS011;8266;52.150;4.768;2023-02-23T12:36:25;24.30;;;15.60;;
16314;SDS011;8266;52.150;4.768;2023-02-23T12:38:59;23.52;;;15.50;;
16314;SDS011;8266;52.150;4.768;2023-02-23T12:41:32;23.35;;;15.00;;
16314;SDS011;8266;52.150;4.768;2023-02-23T12:44:07;21.40;;;14.35;;
16314;SDS011;8266;52.150;4.768;2023-02-23T12:46:47;23.52;;;14.52;;
16314;SDS011;8266;52.150;4.768;2023-02-23T12:49:18;23.33;;;14.50;;
16314;SDS011;8266;52.150;4.768;2023-02-23T12:51:54;23.52;;;14.35;;
16314;SDS011;8266;52.150;4.768;2023-02-23T12:54:30;20.67;;;13.90;;
16314;SDS011;8266;52.150;4.768;2023-02-23T12:57:01;21.88;;;14.60;;
16314;SDS011;8266;52.150;4.768;2023-02-23T13:02:37;23.88;;;15.43;;
16314;SDS011;8266;52.150;4.768;2023-02-23T13:05:14;21.23;;;14.68;;
16314;SDS011;8266;52.150;4.768;2023-02-23T13:07:48;21.70;;;13.90;;
16314;SDS011;8266;52.150;4.768;2023-02-23T13:10:26;21.45;;;15.07;;
16314;SDS011;8266;52.150;4.768;2023-02-23T13:13:04;20.40;;;14.18;;
16314;SDS011;8266;52.150;4.768;2023-02-23T13:15:45;19.23;;;14.10;;
16314;SDS011;8266;52.150;4.768;2023-02-23T13:18:26;20.15;;;14.15;;
16314;SDS011;8266;52.150;4.768;2023-02-23T13:20:59;18.30;;;13.65;;
16314;SDS011;8266;52.150;4.768;2023-02-23T13:23:33;21.08;;;14.70;;
16314;SDS011;8266;52.150;4.768;2023-02-23T13:26:08;22.48;;;15.55;;
16314;SDS011;8266;52.150;4.768;2023-02-23T13:28:49;20.98;;;15.07;;
16314;SDS011;8266;52.150;4.768;2023-02-23T13:31:22;21.05;;;15.18;;
16314;SDS011;8266;52.150;4.768;2023-02-23T13:33:54;23.17;;;16.02;;
16314;SDS011;8266;52.150;4.768;2023-02-23T13:36:23;22.30;;;15.32;;
16314;SDS011;8266;52.150;4.768;2023-02-23T13:39:09;21.42;;;14.75;;
16314;SDS011;8266;52.150;4.768;2023-02-23T13:41:52;20.67;;;14.73;;
16314;SDS011;8266;52.150;4.768;2023-02-23T13:44:31;19.33;;;14.13;;
16314;SDS011;8266;52.150;4.768;2023-02-23T13:47:04;18.02;;;13.88;;
16314;SDS011;8266;52.150;4.768;2023-02-23T13:49:41;21.52;;;14.73;;
16314;SDS011;8266;52.150;4.768;2023-02-23T13:52:19;18.73;;;13.85;;
16314;SDS011;8266;52.150;4.768;2023-02-23T13:54:53;19.77;;;14.20;;
16314;SDS011;8266;52.150;4.768;2023-02-23T13:57:23;20.35;;;13.48;;
16314;SDS011;8266;52.150;4.768;2023-02-23T13:59:55;20.17;;;12.82;;
16314;SDS011;8266;52.150;4.768;2023-02-23T14:02:30;17.35;;;12.40;;
16314;SDS011;8266;52.150;4.768;2023-02-23T14:05:02;17.70;;;12.00;;
16314;SDS011;8266;52.150;4.768;2023-02-23T14:07:32;18.73;;;12.73;;
16314;SDS011;8266;52.150;4.768;2023-02-23T14:10:05;18.02;;;12.10;;
16314;SDS011;8266;52.150;4.768;2023-02-23T14:12:34;23.20;;;12.75;;
16314;SDS011;8266;52.150;4.768;2023-02-23T14:21:02;21.25;;;13.00;;
16314;SDS011;8266;52.150;4.768;2023-02-23T14:23:48;21.42;;;13.32;;
16314;SDS011;8266;52.150;4.768;2023-02-23T14:29:14;18.85;;;12.15;;
16314;SDS011;8266;52.150;4.768;2023-02-23T14:31:52;19.60;;;12.55;;
16314;SDS011;8266;52.150;4.768;2023-02-23T14:34:50;22.00;;;12.23;;
16314;SDS011;8266;52.150;4.768;2023-02-23T14:37:22;18.58;;;11.75;;
16314;SDS011;8266;52.150;4.768;2023-02-23T14:39:52;19.52;;;11.07;;
16314;SDS011;8266;52.150;4.768;2023-02-23T14:42:23;21.50;;;10.70;;
16314;SDS011;8266;52.150;4.768;2023-02-23T14:44:52;16.38;;;9.90;;
16314;SDS011;8266;52.150;4.768;2023-02-23T14:47:20;14.93;;;8.70;;
16314;SDS011;8266;52.150;4.768;2023-02-23T14:49:50;10.27;;;6.70;;
16314;SDS011;8266;52.150;4.768;2023-02-23T14:52:23;10.75;;;6.28;;
16314;SDS011;8266;52.150;4.768;2023-02-23T14:54:51;8.45;;;4.95;;
16314;SDS011;8266;52.150;4.768;2023-02-23T14:57:33;10.20;;;5.22;;
16314;SDS011;8266;52.150;4.768;2023-02-23T15:00:05;8.73;;;4.65;;
16314;SDS011;8266;52.150;4.768;2023-02-23T15:02:37;9.00;;;3.90;;
16314;SDS011;8266;52.150;4.768;2023-02-23T15:05:13;6.78;;;3.30;;
16314;SDS011;8266;52.150;4.768;2023-02-23T15:07:42;6.97;;;2.65;;
16314;SDS011;8266;52.150;4.768;2023-02-23T15:10:11;4.68;;;2.80;;
16314;SDS011;8266;52.150;4.768;2023-02-23T15:12:43;7.55;;;3.22;;
16314;SDS011;8266;52.150;4.768;2023-02-23T15:15:13;6.30;;;3.38;;
16314;SDS011;8266;52.150;4.768;2023-02-23T15:17:44;6.03;;;3.53;;
16314;SDS011;8266;52.150;4.768;2023-02-23T15:20:14;10.63;;;4.20;;
16314;SDS011;8266;52.150;4.768;2023-02-23T15:22:45;7.28;;;3.40;;
16314;SDS011;8266;52.150;4.768;2023-02-23T15:25:19;7.05;;;3.30;;
16314;SDS011;8266;52.150;4.768;2023-02-23T15:27:48;5.68;;;2.85;;
16314;SDS011;8266;52.150;4.768;2023-02-23T15:30:23;10.25;;;3.97;;
16314;SDS011;8266;52.150;4.768;2023-02-23T15:32:58;14.35;;;4.13;;